sensor_id;sensor_type;location;lat;lon;timestamp;P1;durP1;ratioP1;P2;durP2;ratioP2
51660;SDS011;37741;49.748;8.490;2023-10-08T00:01:17;9.40;;;4.30;;
51660;SDS011;37741;49.748;8.490;2023-10-08T00:03:43;6.13;;;3.47;;
51660;SDS011;37741;49.748;8.490;2023-10-08T00:06:16;6.57;;;3.67;;
51660;SDS011;37741;49.748;8.490;2023-10-08T00:08:44;6.40;;;3.65;;
51660;SDS011;37741;49.748;8.490;2023-10-08T00:11:10;5.50;;;3.75;;
51660;SDS011;37741;49.748;8.490;2023-10-08T00:13:36;6.82;;;4.18;;
51660;SDS011;37741;49.748;8.490;2023-10-08T00:16:06;5.18;;;3.50;;
51660;SDS011;37741;49.748;8.490;2023-10-08T00:18:36;5.32;;;3.53;;
51660;SDS011;37741;49.748;8.490;2023-10-08T00:21:05;4.55;;;3.05;;
51660;SDS011;37741;49.748;8.490;2023-10-08T00:23:36;6.18;;;3.30;;
51660;SDS011;37741;49.748;8.490;2023-10-08T00:26:07;7.45;;;4.32;;
51660;SDS011;37741;49.748;8.490;2023-10-08T00:28:33;6.75;;;3.90;;
51660;SDS011;37741;49.748;8.490;2023-10-08T00:31:01;7.18;;;3.78;;
51660;SDS011;37741;49.748;8.490;2023-10-08T00:33:47;7.93;;;3.78;;
51660;SDS011;37741;49.748;8.490;2023-10-08T00:36:13;6.38;;;3.78;;
51660;SDS011;37741;49.748;8.490;2023-10-08T00:38:48;7.68;;;3.42;;
51660;SDS011;37741;49.748;8.490;2023-10-08T00:41:16;6.88;;;4.13;;
51660;SDS011;37741;49.748;8.490;2023-10-08T00:43:49;6.97;;;4.57;;
51660;SDS011;37741;49.748;8.490;2023-10-08T00:46:16;6.18;;;3.75;;
51660;SDS011;37741;49.748;8.490;2023-10-08T00:48:53;5.47;;;3.10;;
51660;SDS011;37741;49.748;8.490;2023-10-08T00:51:21;6.75;;;3.60;;
51660;SDS011;37741;49.748;8.490;2023-10-08T00:53:57;5.97;;;3.50;;
51660;SDS011;37741;49.748;8.490;2023-10-08T00:56:32;5.78;;;3.70;;
51660;SDS011;37741;49.748;8.490;2023-10-08T00:59:17;6.13;;;3.35;;
51660;SDS011;37741;49.748;8.490;2023-10-08T01:01:46;5.75;;;3.70;;
51660;SDS011;37741;49.748;8.490;2023-10-08T01:04:17;6.78;;;3.67;;
51660;SDS011;37741;49.748;8.490;2023-10-08T01:06:55;5.43;;;3.30;;
51660;SDS011;37741;49.748;8.490;2023-10-08T01:09:26;5.47;;;3.75;;
51660;SDS011;37741;49.748;8.490;2023-10-08T01:12:16;5.68;;;3.20;;
51660;SDS011;37741;49.748;8.490;2023-10-08T01:14:55;8.05;;;4.15;;
51660;SDS011;37741;49.748;8.490;2023-10-08T01:17:32;6.30;;;3.70;;
51660;SDS011;37741;49.748;8.490;2023-10-08T01:20:04;6.13;;;3.88;;
51660;SDS011;37741;49.748;8.490;2023-10-08T01:22:35;6.53;;;3.33;;
51660;SDS011;37741;49.748;8.490;2023-10-08T01:25:04;7.15;;;3.65;;
51660;SDS011;37741;49.748;8.490;2023-10-08T01:27:30;5.82;;;3.55;;
51660;SDS011;37741;49.748;8.490;2023-10-08T01:30:00;5.65;;;3.50;;
51660;SDS011;37741;49.748;8.490;2023-10-08T01:32:46;6.97;;;4.10;;
51660;SDS011;37741;49.748;8.490;2023-10-08T01:35:12;5.72;;;3.35;;
51660;SDS011;37741;49.748;8.490;2023-10-08T01:37:51;5.45;;;3.42;;
51660;SDS011;37741;49.748;8.490;2023-10-08T01:40:18;5.88;;;3.78;;
51660;SDS011;37741;49.748;8.490;2023-10-08T01:42:43;7.13;;;3.63;;
51660;SDS011;37741;49.748;8.490;2023-10-08T01:45:10;7.85;;;3.95;;
51660;SDS011;37741;49.748;8.490;2023-10-08T01:47:38;5.97;;;3.90;;
51660;SDS011;37741;49.748;8.490;2023-10-08T01:50:04;6.22;;;3.17;;
51660;SDS011;37741;49.748;8.490;2023-10-08T01:52:36;6.45;;;3.72;;
51660;SDS011;37741;49.748;8.490;2023-10-08T01:55:02;6.35;;;3.47;;
51660;SDS011;37741;49.748;8.490;2023-10-08T01:57:28;6.68;;;4.55;;
51660;SDS011;37741;49.748;8.490;2023-10-08T01:59:53;7.35;;;3.65;;
51660;SDS011;37741;49.748;8.490;2023-10-08T02:02:19;6.15;;;3.30;;
51660;SDS011;37741;49.748;8.490;2023-10-08T02:04:45;5.50;;;3.35;;
51660;SDS011;37741;49.748;8.490;2023-10-08T02:07:10;6.32;;;3.40;;
51660;SDS011;37741;49.748;8.490;2023-10-08T02:09:39;9.50;;;3.78;;
51660;SDS011;37741;49.748;8.490;2023-10-08T02:12:05;5.72;;;3.30;;
51660;SDS011;37741;49.748;8.490;2023-10-08T02:14:31;6.32;;;3.53;;
51660;SDS011;37741;49.748;8.490;2023-10-08T02:17:00;6.80;;;3.85;;
51660;SDS011;37741;49.748;8.490;2023-10-08T02:19:31;5.82;;;3.72;;
51660;SDS011;37741;49.748;8.490;2023-10-08T02:21:57;6.97;;;3.95;;
51660;SDS011;37741;49.748;8.490;2023-10-08T02:24:24;6.13;;;3.53;;
51660;SDS011;37741;49.748;8.490;2023-10-08T02:26:53;4.70;;;3.30;;
51660;SDS011;37741;49.748;8.490;2023-10-08T02:29:20;4.82;;;3.20;;
51660;SDS011;37741;49.748;8.490;2023-10-08T02:31:51;6.35;;;3.40;;
51660;SDS011;37741;49.748;8.490;2023-10-08T02:34:19;6.50;;;3.55;;
51660;SDS011;37741;49.748;8.490;2023-10-08T02:36:44;6.90;;;4.47;;
51660;SDS011;37741;49.748;8.490;2023-10-08T02:39:12;6.65;;;3.72;;
51660;SDS011;37741;49.748;8.490;2023-10-08T02:41:42;6.05;;;3.42;;
51660;SDS011;37741;49.748;8.490;2023-10-08T02:44:10;6.53;;;3.92;;
51660;SDS011;37741;49.748;8.490;2023-10-08T02:46:39;6.70;;;3.92;;
51660;SDS011;37741;49.748;8.490;2023-10-08T02:49:06;5.63;;;3.35;;
51660;SDS011;37741;49.748;8.490;2023-10-08T02:51:36;5.43;;;3.33;;
51660;SDS011;37741;49.748;8.490;2023-10-08T02:54:06;7.82;;;3.58;;
51660;SDS011;37741;49.748;8.490;2023-10-08T02:56:42;4.78;;;3.15;;
51660;SDS011;37741;49.748;8.490;2023-10-08T02:59:12;5.88;;;3.88;;
51660;SDS011;37741;49.748;8.490;2023-10-08T03:01:39;5.45;;;3.63;;
51660;SDS011;37741;49.748;8.490;2023-10-08T03:04:05;5.63;;;3.58;;
51660;SDS011;37741;49.748;8.490;2023-10-08T03:06:39;6.28;;;3.83;;
51660;SDS011;37741;49.748;8.490;2023-10-08T03:09:06;8.02;;;3.67;;
51660;SDS011;37741;49.748;8.490;2023-10-08T03:11:34;6.45;;;4.30;;
51660;SDS011;37741;49.748;8.490;2023-10-08T03:14:02;5.68;;;3.50;;
51660;SDS011;37741;49.748;8.490;2023-10-08T03:16:28;5.25;;;3.13;;
51660;SDS011;37741;49.748;8.490;2023-10-08T03:18:59;5.32;;;2.83;;
51660;SDS011;37741;49.748;8.490;2023-10-08T03:21:25;5.95;;;3.40;;
51660;SDS011;37741;49.748;8.490;2023-10-08T03:24:03;7.93;;;3.00;;
51660;SDS011;37741;49.748;8.490;2023-10-08T03:26:38;5.47;;;3.20;;
51660;SDS011;37741;49.748;8.490;2023-10-08T03:29:05;5.78;;;3.90;;
51660;SDS011;37741;49.748;8.490;2023-10-08T03:31:34;5.90;;;3.45;;
51660;SDS011;37741;49.748;8.490;2023-10-08T03:34:12;5.68;;;3.72;;
51660;SDS011;37741;49.748;8.490;2023-10-08T03:36:40;8.40;;;3.95;;
51660;SDS011;37741;49.748;8.490;2023-10-08T03:39:10;4.40;;;3.10;;
51660;SDS011;37741;49.748;8.490;2023-10-08T03:41:41;5.95;;;3.85;;
51660;SDS011;37741;49.748;8.490;2023-10-08T03:44:08;5.97;;;3.35;;
51660;SDS011;37741;49.748;8.490;2023-10-08T03:46:41;6.28;;;3.30;;
51660;SDS011;37741;49.748;8.490;2023-10-08T03:49:11;5.72;;;3.38;;
51660;SDS011;37741;49.748;8.490;2023-10-08T03:51:46;5.18;;;2.95;;
51660;SDS011;37741;49.748;8.490;2023-10-08T03:54:13;5.97;;;3.30;;
51660;SDS011;37741;49.748;8.490;2023-10-08T03:56:43;7.13;;;3.65;;
51660;SDS011;37741;49.748;8.490;2023-10-08T03:59:17;6.18;;;3.22;;
51660;SDS011;37741;49.748;8.490;2023-10-08T04:01:56;7.45;;;3.63;;
51660;SDS011;37741;49.748;8.490;2023-10-08T04:04:43;9.52;;;4.10;;
51660;SDS011;37741;49.748;8.490;2023-10-08T04:07:22;5.00;;;3.30;;
51660;SDS011;37741;49.748;8.490;2023-10-08T04:09:49;5.75;;;3.35;;
51660;SDS011;37741;49.748;8.490;2023-10-08T04:12:24;6.93;;;3.33;;
51660;SDS011;37741;49.748;8.490;2023-10-08T04:14:52;5.50;;;3.35;;
51660;SDS011;37741;49.748;8.490;2023-10-08T04:17:20;5.93;;;3.35;;
51660;SDS011;37741;49.748;8.490;2023-10-08T04:19:47;6.55;;;3.97;;
51660;SDS011;37741;49.748;8.490;2023-10-08T04:22:13;5.90;;;3.63;;
51660;SDS011;37741;49.748;8.490;2023-10-08T04:24:43;7.43;;;3.90;;
51660;SDS011;37741;49.748;8.490;2023-10-08T04:27:09;8.63;;;3.47;;
51660;SDS011;37741;49.748;8.490;2023-10-08T04:29:34;7.07;;;3.53;;
51660;SDS011;37741;49.748;8.490;2023-10-08T04:32:02;5.45;;;3.13;;
51660;SDS011;37741;49.748;8.490;2023-10-08T04:34:46;4.53;;;3.28;;
51660;SDS011;37741;49.748;8.490;2023-10-08T04:37:12;5.78;;;3.80;;
51660;SDS011;37741;49.748;8.490;2023-10-08T04:39:39;8.45;;;3.92;;
51660;SDS011;37741;49.748;8.490;2023-10-08T04:42:11;7.75;;;3.40;;
51660;SDS011;37741;49.748;8.490;2023-10-08T04:44:39;6.18;;;3.60;;
51660;SDS011;37741;49.748;8.490;2023-10-08T04:47:07;9.65;;;3.42;;
51660;SDS011;37741;49.748;8.490;2023-10-08T04:49:33;5.00;;;3.40;;
51660;SDS011;37741;49.748;8.490;2023-10-08T04:54:30;4.90;;;3.40;;
51660;SDS011;37741;49.748;8.490;2023-10-08T04:56:59;6.97;;;3.75;;
51660;SDS011;37741;49.748;8.490;2023-10-08T04:59:27;6.25;;;3.58;;
51660;SDS011;37741;49.748;8.490;2023-10-08T05:02:03;6.40;;;3.60;;
51660;SDS011;37741;49.748;8.490;2023-10-08T05:04:41;5.65;;;3.45;;
51660;SDS011;37741;49.748;8.490;2023-10-08T05:07:21;5.55;;;3.53;;
51660;SDS011;37741;49.748;8.490;2023-10-08T05:10:07;6.65;;;3.42;;
51660;SDS011;37741;49.748;8.490;2023-10-08T05:12:33;6.40;;;3.33;;
51660;SDS011;37741;49.748;8.490;2023-10-08T05:15:18;7.10;;;3.65;;
51660;SDS011;37741;49.748;8.490;2023-10-08T05:17:57;6.25;;;3.80;;
51660;SDS011;37741;49.748;8.490;2023-10-08T05:20:34;6.55;;;3.22;;
51660;SDS011;37741;49.748;8.490;2023-10-08T05:23:15;6.72;;;3.33;;
51660;SDS011;37741;49.748;8.490;2023-10-08T05:25:45;5.85;;;3.58;;
51660;SDS011;37741;49.748;8.490;2023-10-08T05:28:31;7.45;;;3.70;;
51660;SDS011;37741;49.748;8.490;2023-10-08T05:31:07;5.95;;;3.95;;
51660;SDS011;37741;49.748;8.490;2023-10-08T05:33:56;6.55;;;4.35;;
51660;SDS011;37741;49.748;8.490;2023-10-08T05:36:28;7.25;;;4.43;;
51660;SDS011;37741;49.748;8.490;2023-10-08T05:39:02;6.60;;;3.85;;
51660;SDS011;37741;49.748;8.490;2023-10-08T05:41:54;4.60;;;3.17;;
51660;SDS011;37741;49.748;8.490;2023-10-08T05:44:38;5.22;;;3.63;;
51660;SDS011;37741;49.748;8.490;2023-10-08T05:47:11;5.93;;;3.67;;
51660;SDS011;37741;49.748;8.490;2023-10-08T05:49:43;6.20;;;3.63;;
51660;SDS011;37741;49.748;8.490;2023-10-08T05:52:19;5.28;;;3.05;;
51660;SDS011;37741;49.748;8.490;2023-10-08T05:54:53;7.22;;;3.05;;
51660;SDS011;37741;49.748;8.490;2023-10-08T05:57:54;5.30;;;3.05;;
51660;SDS011;37741;49.748;8.490;2023-10-08T06:00:49;6.63;;;3.42;;
51660;SDS011;37741;49.748;8.490;2023-10-08T06:03:18;5.50;;;3.30;;
51660;SDS011;37741;49.748;8.490;2023-10-08T06:06:06;6.53;;;3.83;;
51660;SDS011;37741;49.748;8.490;2023-10-08T06:08:36;5.22;;;3.50;;
51660;SDS011;37741;49.748;8.490;2023-10-08T06:11:22;6.53;;;3.75;;
51660;SDS011;37741;49.748;8.490;2023-10-08T06:14:09;4.60;;;2.80;;
51660;SDS011;37741;49.748;8.490;2023-10-08T06:16:41;6.50;;;3.55;;
51660;SDS011;37741;49.748;8.490;2023-10-08T06:19:12;5.45;;;3.35;;
51660;SDS011;37741;49.748;8.490;2023-10-08T06:21:40;7.90;;;3.60;;
51660;SDS011;37741;49.748;8.490;2023-10-08T06:24:07;6.05;;;3.65;;
51660;SDS011;37741;49.748;8.490;2023-10-08T06:26:40;8.77;;;3.63;;
51660;SDS011;37741;49.748;8.490;2023-10-08T06:29:07;6.07;;;2.92;;
51660;SDS011;37741;49.748;8.490;2023-10-08T06:31:44;8.77;;;3.53;;
51660;SDS011;37741;49.748;8.490;2023-10-08T06:34:16;4.80;;;3.05;;
51660;SDS011;37741;49.748;8.490;2023-10-08T06:36:46;4.57;;;2.97;;
51660;SDS011;37741;49.748;8.490;2023-10-08T06:39:12;5.07;;;3.30;;
51660;SDS011;37741;49.748;8.490;2023-10-08T06:41:43;5.65;;;3.53;;
51660;SDS011;37741;49.748;8.490;2023-10-08T06:44:11;5.10;;;3.53;;
51660;SDS011;37741;49.748;8.490;2023-10-08T06:46:40;5.53;;;3.17;;
51660;SDS011;37741;49.748;8.490;2023-10-08T06:49:07;7.60;;;3.95;;
51660;SDS011;37741;49.748;8.490;2023-10-08T06:51:37;5.28;;;3.35;;
51660;SDS011;37741;49.748;8.490;2023-10-08T06:54:03;6.03;;;3.63;;
51660;SDS011;37741;49.748;8.490;2023-10-08T06:56:29;7.40;;;3.50;;
51660;SDS011;37741;49.748;8.490;2023-10-08T06:58:56;6.22;;;3.95;;
51660;SDS011;37741;49.748;8.490;2023-10-08T07:01:24;7.47;;;3.55;;
51660;SDS011;37741;49.748;8.490;2023-10-08T07:03:56;7.18;;;3.97;;
51660;SDS011;37741;49.748;8.490;2023-10-08T07:06:28;8.85;;;3.90;;
51660;SDS011;37741;49.748;8.490;2023-10-08T07:08:59;6.47;;;4.13;;
51660;SDS011;37741;49.748;8.490;2023-10-08T07:11:29;9.70;;;4.80;;
51660;SDS011;37741;49.748;8.490;2023-10-08T07:14:00;7.05;;;4.57;;
51660;SDS011;37741;49.748;8.490;2023-10-08T07:16:29;8.82;;;4.53;;
51660;SDS011;37741;49.748;8.490;2023-10-08T07:18:56;7.55;;;4.03;;
51660;SDS011;37741;49.748;8.490;2023-10-08T07:21:28;7.32;;;3.83;;
51660;SDS011;37741;49.748;8.490;2023-10-08T07:23:57;10.32;;;4.53;;
51660;SDS011;37741;49.748;8.490;2023-10-08T07:26:27;8.32;;;4.55;;
51660;SDS011;37741;49.748;8.490;2023-10-08T07:29:01;7.93;;;4.03;;
51660;SDS011;37741;49.748;8.490;2023-10-08T07:31:32;10.05;;;4.45;;
51660;SDS011;37741;49.748;8.490;2023-10-08T07:33:59;7.10;;;4.15;;
51660;SDS011;37741;49.748;8.490;2023-10-08T07:36:41;8.93;;;4.22;;
51660;SDS011;37741;49.748;8.490;2023-10-08T07:39:08;6.88;;;4.15;;
51660;SDS011;37741;49.748;8.490;2023-10-08T07:41:47;7.55;;;3.95;;
51660;SDS011;37741;49.748;8.490;2023-10-08T07:44:13;6.18;;;3.65;;
51660;SDS011;37741;49.748;8.490;2023-10-08T07:46:38;8.75;;;4.43;;
51660;SDS011;37741;49.748;8.490;2023-10-08T07:49:04;7.80;;;4.40;;
51660;SDS011;37741;49.748;8.490;2023-10-08T07:51:30;10.15;;;5.18;;
51660;SDS011;37741;49.748;8.490;2023-10-08T07:53:56;7.55;;;4.18;;
51660;SDS011;37741;49.748;8.490;2023-10-08T07:56:22;6.90;;;4.22;;
51660;SDS011;37741;49.748;8.490;2023-10-08T07:58:51;7.45;;;4.10;;
51660;SDS011;37741;49.748;8.490;2023-10-08T08:01:17;7.68;;;3.92;;
51660;SDS011;37741;49.748;8.490;2023-10-08T08:03:45;7.70;;;4.25;;
51660;SDS011;37741;49.748;8.490;2023-10-08T08:06:13;7.13;;;3.90;;
51660;SDS011;37741;49.748;8.490;2023-10-08T08:08:40;7.63;;;4.32;;
51660;SDS011;37741;49.748;8.490;2023-10-08T08:11:07;7.07;;;4.05;;
51660;SDS011;37741;49.748;8.490;2023-10-08T08:13:44;6.40;;;3.70;;
51660;SDS011;37741;49.748;8.490;2023-10-08T08:16:10;6.45;;;3.67;;
51660;SDS011;37741;49.748;8.490;2023-10-08T08:18:44;7.30;;;4.38;;
51660;SDS011;37741;49.748;8.490;2023-10-08T08:21:20;8.02;;;4.25;;
51660;SDS011;37741;49.748;8.490;2023-10-08T08:23:48;6.75;;;4.18;;
51660;SDS011;37741;49.748;8.490;2023-10-08T08:26:24;8.68;;;4.43;;
51660;SDS011;37741;49.748;8.490;2023-10-08T08:28:56;8.30;;;4.20;;
51660;SDS011;37741;49.748;8.490;2023-10-08T08:31:25;7.05;;;3.92;;
51660;SDS011;37741;49.748;8.490;2023-10-08T08:33:53;7.13;;;4.10;;
51660;SDS011;37741;49.748;8.490;2023-10-08T08:36:25;6.90;;;4.57;;
51660;SDS011;37741;49.748;8.490;2023-10-08T08:38:55;8.43;;;4.53;;
51660;SDS011;37741;49.748;8.490;2023-10-08T08:41:21;7.05;;;4.43;;
51660;SDS011;37741;49.748;8.490;2023-10-08T08:43:49;7.68;;;4.50;;
51660;SDS011;37741;49.748;8.490;2023-10-08T08:46:22;5.90;;;3.85;;
51660;SDS011;37741;49.748;8.490;2023-10-08T08:48:57;7.43;;;4.70;;
51660;SDS011;37741;49.748;8.490;2023-10-08T08:51:29;7.45;;;4.57;;
51660;SDS011;37741;49.748;8.490;2023-10-08T08:53:56;7.05;;;4.45;;
51660;SDS011;37741;49.748;8.490;2023-10-08T08:56:24;6.13;;;3.80;;
51660;SDS011;37741;49.748;8.490;2023-10-08T08:58:51;7.60;;;4.28;;
51660;SDS011;37741;49.748;8.490;2023-10-08T09:01:17;9.60;;;4.65;;
51660;SDS011;37741;49.748;8.490;2023-10-08T09:03:44;7.05;;;4.45;;
51660;SDS011;37741;49.748;8.490;2023-10-08T09:06:13;8.13;;;4.45;;
51660;SDS011;37741;49.748;8.490;2023-10-08T09:08:39;8.25;;;4.18;;
51660;SDS011;37741;49.748;8.490;2023-10-08T09:11:13;6.25;;;3.75;;
51660;SDS011;37741;49.748;8.490;2023-10-08T09:13:42;8.23;;;4.45;;
51660;SDS011;37741;49.748;8.490;2023-10-08T09:16:15;5.78;;;3.50;;
51660;SDS011;37741;49.748;8.490;2023-10-08T09:18:46;9.75;;;4.50;;
51660;SDS011;37741;49.748;8.490;2023-10-08T09:21:18;6.32;;;3.78;;
51660;SDS011;37741;49.748;8.490;2023-10-08T09:23:51;7.70;;;4.50;;
51660;SDS011;37741;49.748;8.490;2023-10-08T09:26:22;7.18;;;3.92;;
51660;SDS011;37741;49.748;8.490;2023-10-08T09:28:48;9.63;;;4.15;;
51660;SDS011;37741;49.748;8.490;2023-10-08T09:31:14;7.72;;;3.67;;
51660;SDS011;37741;49.748;8.490;2023-10-08T09:33:42;7.57;;;4.13;;
51660;SDS011;37741;49.748;8.490;2023-10-08T09:36:18;8.25;;;3.35;;
51660;SDS011;37741;49.748;8.490;2023-10-08T09:38:45;9.30;;;4.10;;
51660;SDS011;37741;49.748;8.490;2023-10-08T09:41:14;6.20;;;3.63;;
51660;SDS011;37741;49.748;8.490;2023-10-08T09:43:43;5.40;;;3.20;;
51660;SDS011;37741;49.748;8.490;2023-10-08T09:48:51;6.35;;;3.80;;
51660;SDS011;37741;49.748;8.490;2023-10-08T09:51:20;6.85;;;3.70;;
51660;SDS011;37741;49.748;8.490;2023-10-08T09:53:52;8.05;;;4.47;;
51660;SDS011;37741;49.748;8.490;2023-10-08T09:56:23;8.10;;;3.70;;
51660;SDS011;37741;49.748;8.490;2023-10-08T09:58:53;6.13;;;3.55;;
51660;SDS011;37741;49.748;8.490;2023-10-08T10:01:19;6.15;;;4.18;;
51660;SDS011;37741;49.748;8.490;2023-10-08T10:03:47;8.48;;;4.13;;
51660;SDS011;37741;49.748;8.490;2023-10-08T10:06:14;7.53;;;3.55;;
51660;SDS011;37741;49.748;8.490;2023-10-08T10:08:42;6.10;;;4.03;;
51660;SDS011;37741;49.748;8.490;2023-10-08T10:11:09;9.55;;;4.75;;
51660;SDS011;37741;49.748;8.490;2023-10-08T10:13:39;5.45;;;3.42;;
51660;SDS011;37741;49.748;8.490;2023-10-08T10:16:07;6.55;;;4.28;;
51660;SDS011;37741;49.748;8.490;2023-10-08T10:18:34;8.18;;;4.40;;
51660;SDS011;37741;49.748;8.490;2023-10-08T10:23:45;6.75;;;3.85;;
51660;SDS011;37741;49.748;8.490;2023-10-08T10:26:22;7.50;;;4.10;;
51660;SDS011;37741;49.748;8.490;2023-10-08T10:31:37;5.32;;;3.40;;
51660;SDS011;37741;49.748;8.490;2023-10-08T10:34:06;5.93;;;3.80;;
51660;SDS011;37741;49.748;8.490;2023-10-08T10:36:36;6.13;;;3.65;;
51660;SDS011;37741;49.748;8.490;2023-10-08T10:39:04;6.38;;;4.47;;
51660;SDS011;37741;49.748;8.490;2023-10-08T10:41:41;8.85;;;4.38;;
51660;SDS011;37741;49.748;8.490;2023-10-08T10:44:08;7.80;;;4.75;;
51660;SDS011;37741;49.748;8.490;2023-10-08T10:46:34;6.57;;;4.10;;
51660;SDS011;37741;49.748;8.490;2023-10-08T10:49:06;5.90;;;3.47;;
51660;SDS011;37741;49.748;8.490;2023-10-08T10:54:22;8.93;;;4.18;;
51660;SDS011;37741;49.748;8.490;2023-10-08T10:56:52;10.55;;;4.43;;
51660;SDS011;37741;49.748;8.490;2023-10-08T10:59:33;8.13;;;4.25;;
51660;SDS011;37741;49.748;8.490;2023-10-08T11:02:04;8.73;;;4.78;;
51660;SDS011;37741;49.748;8.490;2023-10-08T11:04:46;7.43;;;4.32;;
51660;SDS011;37741;49.748;8.490;2023-10-08T11:07:16;7.38;;;4.40;;
51660;SDS011;37741;49.748;8.490;2023-10-08T11:09:45;8.30;;;4.63;;
51660;SDS011;37741;49.748;8.490;2023-10-08T11:12:13;6.57;;;4.30;;
51660;SDS011;37741;49.748;8.490;2023-10-08T11:14:45;6.88;;;4.20;;
51660;SDS011;37741;49.748;8.490;2023-10-08T11:17:12;7.88;;;4.35;;
51660;SDS011;37741;49.748;8.490;2023-10-08T11:19:41;6.47;;;3.67;;
51660;SDS011;37741;49.748;8.490;2023-10-08T11:22:14;10.73;;;4.57;;
51660;SDS011;37741;49.748;8.490;2023-10-08T11:24:47;7.28;;;4.35;;
51660;SDS011;37741;49.748;8.490;2023-10-08T11:27:14;6.80;;;3.72;;
51660;SDS011;37741;49.748;8.490;2023-10-08T11:29:53;7.03;;;4.32;;
51660;SDS011;37741;49.748;8.490;2023-10-08T11:32:23;11.18;;;4.47;;
51660;SDS011;37741;49.748;8.490;2023-10-08T11:34:57;7.38;;;4.47;;
51660;SDS011;37741;49.748;8.490;2023-10-08T11:37:44;5.60;;;3.33;;
51660;SDS011;37741;49.748;8.490;2023-10-08T11:40:21;6.82;;;4.10;;
51660;SDS011;37741;49.748;8.490;2023-10-08T11:43:08;6.28;;;4.93;;
51660;SDS011;37741;49.748;8.490;2023-10-08T11:45:40;6.03;;;3.63;;
51660;SDS011;37741;49.748;8.490;2023-10-08T11:48:15;7.90;;;4.13;;
51660;SDS011;37741;49.748;8.490;2023-10-08T11:50:53;11.35;;;4.80;;
51660;SDS011;37741;49.748;8.490;2023-10-08T11:53:22;8.55;;;4.25;;
51660;SDS011;37741;49.748;8.490;2023-10-08T11:55:49;9.13;;;5.13;;
51660;SDS011;37741;49.748;8.490;2023-10-08T11:58:19;15.35;;;6.30;;
51660;SDS011;37741;49.748;8.490;2023-10-08T12:00:51;11.20;;;4.10;;
51660;SDS011;37741;49.748;8.490;2023-10-08T12:03:17;8.48;;;4.18;;
51660;SDS011;37741;49.748;8.490;2023-10-08T12:05:43;12.43;;;4.72;;
51660;SDS011;37741;49.748;8.490;2023-10-08T12:08:15;10.30;;;4.18;;
51660;SDS011;37741;49.748;8.490;2023-10-08T12:10:45;9.30;;;4.38;;
51660;SDS011;37741;49.748;8.490;2023-10-08T12:13:11;8.45;;;4.45;;
51660;SDS011;37741;49.748;8.490;2023-10-08T12:15:37;7.47;;;4.68;;
51660;SDS011;37741;49.748;8.490;2023-10-08T12:18:03;8.98;;;4.50;;
51660;SDS011;37741;49.748;8.490;2023-10-08T12:20:48;8.27;;;3.95;;
51660;SDS011;37741;49.748;8.490;2023-10-08T12:23:14;9.40;;;4.35;;
51660;SDS011;37741;49.748;8.490;2023-10-08T12:25:52;15.82;;;6.38;;
51660;SDS011;37741;49.748;8.490;2023-10-08T12:28:20;22.83;;;7.90;;
51660;SDS011;37741;49.748;8.490;2023-10-08T12:30:48;14.73;;;5.60;;
51660;SDS011;37741;49.748;8.490;2023-10-08T12:33:17;12.35;;;5.90;;
51660;SDS011;37741;49.748;8.490;2023-10-08T12:35:49;15.38;;;5.07;;
51660;SDS011;37741;49.748;8.490;2023-10-08T12:38:18;14.77;;;6.28;;
51660;SDS011;37741;49.748;8.490;2023-10-08T12:40:48;12.20;;;4.93;;
51660;SDS011;37741;49.748;8.490;2023-10-08T12:43:18;9.93;;;5.45;;
51660;SDS011;37741;49.748;8.490;2023-10-08T12:45:47;10.52;;;5.10;;
51660;SDS011;37741;49.748;8.490;2023-10-08T12:48:23;13.80;;;5.45;;
51660;SDS011;37741;49.748;8.490;2023-10-08T12:50:51;10.32;;;5.00;;
51660;SDS011;37741;49.748;8.490;2023-10-08T12:53:24;10.57;;;4.93;;
51660;SDS011;37741;49.748;8.490;2023-10-08T12:56:01;11.02;;;6.10;;
51660;SDS011;37741;49.748;8.490;2023-10-08T12:58:42;8.52;;;4.45;;
51660;SDS011;37741;49.748;8.490;2023-10-08T13:01:13;8.85;;;5.15;;
51660;SDS011;37741;49.748;8.490;2023-10-08T13:03:42;11.13;;;5.28;;
51660;SDS011;37741;49.748;8.490;2023-10-08T13:06:19;10.65;;;4.57;;
51660;SDS011;37741;49.748;8.490;2023-10-08T13:08:51;8.65;;;4.95;;
51660;SDS011;37741;49.748;8.490;2023-10-08T13:11:21;7.20;;;4.35;;
51660;SDS011;37741;49.748;8.490;2023-10-08T13:13:54;10.13;;;4.40;;
51660;SDS011;37741;49.748;8.490;2023-10-08T13:16:24;9.07;;;4.70;;
51660;SDS011;37741;49.748;8.490;2023-10-08T13:18:53;9.27;;;4.57;;
51660;SDS011;37741;49.748;8.490;2023-10-08T13:21:21;10.55;;;4.93;;
51660;SDS011;37741;49.748;8.490;2023-10-08T13:23:50;7.65;;;4.75;;
51660;SDS011;37741;49.748;8.490;2023-10-08T13:26:16;7.57;;;4.25;;
51660;SDS011;37741;49.748;8.490;2023-10-08T13:28:42;8.07;;;4.80;;
51660;SDS011;37741;49.748;8.490;2023-10-08T13:31:09;8.98;;;4.57;;
51660;SDS011;37741;49.748;8.490;2023-10-08T13:33:39;6.22;;;3.95;;
51660;SDS011;37741;49.748;8.490;2023-10-08T13:36:07;8.13;;;4.28;;
51660;SDS011;37741;49.748;8.490;2023-10-08T13:38:35;8.57;;;4.32;;
51660;SDS011;37741;49.748;8.490;2023-10-08T13:41:02;7.13;;;4.63;;
51660;SDS011;37741;49.748;8.490;2023-10-08T13:43:34;8.38;;;4.72;;
51660;SDS011;37741;49.748;8.490;2023-10-08T13:48:32;9.32;;;4.63;;
51660;SDS011;37741;49.748;8.490;2023-10-08T13:51:02;8.57;;;4.72;;
51660;SDS011;37741;49.748;8.490;2023-10-08T13:53:29;9.07;;;4.50;;
51660;SDS011;37741;49.748;8.490;2023-10-08T13:55:59;11.77;;;4.43;;
51660;SDS011;37741;49.748;8.490;2023-10-08T13:58:29;8.65;;;4.20;;
51660;SDS011;37741;49.748;8.490;2023-10-08T14:00:56;8.55;;;4.53;;
51660;SDS011;37741;49.748;8.490;2023-10-08T14:03:25;7.35;;;3.67;;
51660;SDS011;37741;49.748;8.490;2023-10-08T14:05:52;8.23;;;4.95;;
51660;SDS011;37741;49.748;8.490;2023-10-08T14:08:19;7.72;;;4.10;;
51660;SDS011;37741;49.748;8.490;2023-10-08T14:10:47;8.77;;;4.60;;
51660;SDS011;37741;49.748;8.490;2023-10-08T14:13:14;8.82;;;4.57;;
51660;SDS011;37741;49.748;8.490;2023-10-08T14:15:44;7.13;;;4.10;;
51660;SDS011;37741;49.748;8.490;2023-10-08T14:18:13;7.90;;;4.18;;
51660;SDS011;37741;49.748;8.490;2023-10-08T14:20:42;9.05;;;4.65;;
51660;SDS011;37741;49.748;8.490;2023-10-08T14:23:12;7.00;;;4.28;;
51660;SDS011;37741;49.748;8.490;2023-10-08T14:25:43;10.07;;;4.43;;
51660;SDS011;37741;49.748;8.490;2023-10-08T14:28:10;7.70;;;4.20;;
51660;SDS011;37741;49.748;8.490;2023-10-08T14:30:47;10.00;;;5.00;;
51660;SDS011;37741;49.748;8.490;2023-10-08T14:33:20;7.82;;;3.97;;
51660;SDS011;37741;49.748;8.490;2023-10-08T14:35:51;11.13;;;4.28;;
51660;SDS011;37741;49.748;8.490;2023-10-08T14:38:36;6.30;;;4.18;;
51660;SDS011;37741;49.748;8.490;2023-10-08T14:41:20;10.18;;;5.25;;
51660;SDS011;37741;49.748;8.490;2023-10-08T14:44:04;14.77;;;4.35;;
51660;SDS011;37741;49.748;8.490;2023-10-08T14:46:31;12.43;;;4.88;;
51660;SDS011;37741;49.748;8.490;2023-10-08T14:48:59;8.48;;;4.22;;
51660;SDS011;37741;49.748;8.490;2023-10-08T14:51:27;8.90;;;4.28;;
51660;SDS011;37741;49.748;8.490;2023-10-08T14:53:52;9.48;;;5.60;;
51660;SDS011;37741;49.748;8.490;2023-10-08T14:56:18;7.00;;;4.22;;
51660;SDS011;37741;49.748;8.490;2023-10-08T14:58:44;16.55;;;4.82;;
51660;SDS011;37741;49.748;8.490;2023-10-08T15:01:12;10.85;;;5.22;;
51660;SDS011;37741;49.748;8.490;2023-10-08T15:03:39;10.02;;;5.18;;
51660;SDS011;37741;49.748;8.490;2023-10-08T15:06:05;11.23;;;5.28;;
51660;SDS011;37741;49.748;8.490;2023-10-08T15:08:32;20.70;;;5.40;;
51660;SDS011;37741;49.748;8.490;2023-10-08T15:10:58;19.85;;;6.20;;
51660;SDS011;37741;49.748;8.490;2023-10-08T15:13:25;14.15;;;5.55;;
51660;SDS011;37741;49.748;8.490;2023-10-08T15:15:51;13.52;;;4.88;;
51660;SDS011;37741;49.748;8.490;2023-10-08T15:18:20;11.93;;;5.03;;
51660;SDS011;37741;49.748;8.490;2023-10-08T15:20:47;19.05;;;5.38;;
51660;SDS011;37741;49.748;8.490;2023-10-08T15:23:18;15.75;;;5.10;;